sensor_id;sensor_type;location;lat;lon;timestamp;temperature;humidity
5806;DHT22;2929;50.810;8.342;2023-01-01T00:01:43;11.50;99.90
5806;DHT22;2929;50.810;8.342;2023-01-01T00:04:11;11.60;99.90
5806;DHT22;2929;50.810;8.342;2023-01-01T00:06:39;11.50;99.90
5806;DHT22;2929;50.810;8.342;2023-01-01T00:09:06;11.50;99.90
5806;DHT22;2929;50.810;8.342;2023-01-01T00:11:51;11.50;99.90
5806;DHT22;2929;50.810;8.342;2023-01-01T00:14:19;11.50;99.90
5806;DHT22;2929;50.810;8.342;2023-01-01T00:16:46;11.50;99.90
5806;DHT22;2929;50.810;8.342;2023-01-01T00:19:13;11.50;99.90
5806;DHT22;2929;50.810;8.342;2023-01-01T00:21:41;11.50;99.90
5806;DHT22;2929;50.810;8.342;2023-01-01T00:24:08;11.40;99.90
5806;DHT22;2929;50.810;8.342;2023-01-01T00:26:35;11.50;99.90
5806;DHT22;2929;50.810;8.342;2023-01-01T00:29:02;11.50;99.90
5806;DHT22;2929;50.810;8.342;2023-01-01T00:31:31;11.50;99.90
5806;DHT22;2929;50.810;8.342;2023-01-01T00:33:58;11.50;99.90
5806;DHT22;2929;50.810;8.342;2023-01-01T00:36:26;11.30;99.90
5806;DHT22;2929;50.810;8.342;2023-01-01T00:38:53;11.20;99.90
5806;DHT22;2929;50.810;8.342;2023-01-01T00:41:21;11.30;99.90
5806;DHT22;2929;50.810;8.342;2023-01-01T00:43:48;11.10;99.90
5806;DHT22;2929;50.810;8.342;2023-01-01T00:46:15;11.00;99.90
5806;DHT22;2929;50.810;8.342;2023-01-01T00:48:44;11.00;99.90
5806;DHT22;2929;50.810;8.342;2023-01-01T00:51:11;11.00;99.90
5806;DHT22;2929;50.810;8.342;2023-01-01T00:53:38;10.90;99.90
5806;DHT22;2929;50.810;8.342;2023-01-01T00:56:06;11.00;99.90
5806;DHT22;2929;50.810;8.342;2023-01-01T00:58:33;11.10;99.90
5806;DHT22;2929;50.810;8.342;2023-01-01T01:01:00;11.20;99.90
5806;DHT22;2929;50.810;8.342;2023-01-01T01:03:27;11.10;99.90
5806;DHT22;2929;50.810;8.342;2023-01-01T01:05:56;11.10;99.90
5806;DHT22;2929;50.810;8.342;2023-01-01T01:08:23;11.10;99.90
5806;DHT22;2929;50.810;8.342;2023-01-01T01:10:50;11.10;99.90
5806;DHT22;2929;50.810;8.342;2023-01-01T01:13:18;11.10;99.90
5806;DHT22;2929;50.810;8.342;2023-01-01T01:15:45;11.10;99.90
5806;DHT22;2929;50.810;8.342;2023-01-01T01:18:12;11.20;99.90
5806;DHT22;2929;50.810;8.342;2023-01-01T01:20:39;11.20;99.90
5806;DHT22;2929;50.810;8.342;2023-01-01T01:23:07;11.20;99.90
5806;DHT22;2929;50.810;8.342;2023-01-01T01:25:34;11.30;99.90
5806;DHT22;2929;50.810;8.342;2023-01-01T01:28:02;11.20;99.90
5806;DHT22;2929;50.810;8.342;2023-01-01T01:30:29;11.30;99.90
5806;DHT22;2929;50.810;8.342;2023-01-01T01:32:56;11.40;99.90
5806;DHT22;2929;50.810;8.342;2023-01-01T01:35:23;11.40;99.90
5806;DHT22;2929;50.810;8.342;2023-01-01T01:37:50;11.30;99.90
5806;DHT22;2929;50.810;8.342;2023-01-01T01:40:18;11.30;99.90
5806;DHT22;2929;50.810;8.342;2023-01-01T01:42:46;11.30;99.90
5806;DHT22;2929;50.810;8.342;2023-01-01T01:45:14;11.20;99.90
5806;DHT22;2929;50.810;8.342;2023-01-01T01:47:47;11.20;99.90
5806;DHT22;2929;50.810;8.342;2023-01-01T01:50:20;11.10;99.90
5806;DHT22;2929;50.810;8.342;2023-01-01T01:52:58;11.10;99.90
5806;DHT22;2929;50.810;8.342;2023-01-01T01:55:29;11.00;99.90
5806;DHT22;2929;50.810;8.342;2023-01-01T01:57:57;10.90;99.90
5806;DHT22;2929;50.810;8.342;2023-01-01T02:00:24;11.00;99.90
5806;DHT22;2929;50.810;8.342;2023-01-01T02:02:54;11.00;99.90
5806;DHT22;2929;50.810;8.342;2023-01-01T02:05:22;11.00;99.90
5806;DHT22;2929;50.810;8.342;2023-01-01T02:07:50;10.90;99.90
5806;DHT22;2929;50.810;8.342;2023-01-01T02:10:18;10.90;99.90
5806;DHT22;2929;50.810;8.342;2023-01-01T02:12:47;11.10;99.90
5806;DHT22;2929;50.810;8.342;2023-01-01T02:15:14;11.20;99.90
5806;DHT22;2929;50.810;8.342;2023-01-01T02:17:47;11.20;99.90
5806;DHT22;2929;50.810;8.342;2023-01-01T02:20:25;11.20;99.90
5806;DHT22;2929;50.810;8.342;2023-01-01T02:25:56;11.20;99.90
5806;DHT22;2929;50.810;8.342;2023-01-01T02:28:39;11.20;99.90
5806;DHT22;2929;50.810;8.342;2023-01-01T02:31:11;11.30;99.90
5806;DHT22;2929;50.810;8.342;2023-01-01T02:33:39;11.30;99.90
5806;DHT22;2929;50.810;8.342;2023-01-01T02:36:10;11.30;99.90
5806;DHT22;2929;50.810;8.342;2023-01-01T02:38:39;11.30;99.90
5806;DHT22;2929;50.810;8.342;2023-01-01T02:41:11;11.30;99.90
5806;DHT22;2929;50.810;8.342;2023-01-01T02:43:41;11.30;99.90
5806;DHT22;2929;50.810;8.342;2023-01-01T02:46:09;11.30;99.90
5806;DHT22;2929;50.810;8.342;2023-01-01T02:48:41;11.30;99.90
5806;DHT22;2929;50.810;8.342;2023-01-01T02:51:15;11.30;99.90
5806;DHT22;2929;50.810;8.342;2023-01-01T02:53:49;11.20;99.90
5806;DHT22;2929;50.810;8.342;2023-01-01T02:56:24;11.20;99.90
5806;DHT22;2929;50.810;8.342;2023-01-01T02:59:00;11.20;99.90
5806;DHT22;2929;50.810;8.342;2023-01-01T03:01:49;11.10;99.90
5806;DHT22;2929;50.810;8.342;2023-01-01T03:04:24;11.10;99.90
5806;DHT22;2929;50.810;8.342;2023-01-01T03:06:55;11.10;99.90
5806;DHT22;2929;50.810;8.342;2023-01-01T03:09:32;11.00;99.90
5806;DHT22;2929;50.810;8.342;2023-01-01T03:12:08;11.10;99.90
5806;DHT22;2929;50.810;8.342;2023-01-01T03:14:41;11.00;99.90
5806;DHT22;2929;50.810;8.342;2023-01-01T03:17:11;11.10;99.90
5806;DHT22;2929;50.810;8.342;2023-01-01T03:19:44;11.20;99.90
5806;DHT22;2929;50.810;8.342;2023-01-01T03:22:14;11.20;99.90
5806;DHT22;2929;50.810;8.342;2023-01-01T03:24:46;11.20;99.90
5806;DHT22;2929;50.810;8.342;2023-01-01T03:27:16;11.20;99.90
5806;DHT22;2929;50.810;8.342;2023-01-01T03:29:48;11.20;99.90
5806;DHT22;2929;50.810;8.342;2023-01-01T03:32:21;11.20;99.90
5806;DHT22;2929;50.810;8.342;2023-01-01T03:35:10;11.20;99.90
5806;DHT22;2929;50.810;8.342;2023-01-01T03:37:39;11.20;99.90
5806;DHT22;2929;50.810;8.342;2023-01-01T03:40:08;11.10;99.90
5806;DHT22;2929;50.810;8.342;2023-01-01T03:42:38;11.10;99.90
5806;DHT22;2929;50.810;8.342;2023-01-01T03:45:12;11.20;99.90
5806;DHT22;2929;50.810;8.342;2023-01-01T03:47:42;11.30;99.90
5806;DHT22;2929;50.810;8.342;2023-01-01T03:50:09;11.30;99.90
5806;DHT22;2929;50.810;8.342;2023-01-01T03:52:42;11.40;99.90
5806;DHT22;2929;50.810;8.342;2023-01-01T03:55:14;11.40;99.90
5806;DHT22;2929;50.810;8.342;2023-01-01T03:57:55;11.30;99.90
5806;DHT22;2929;50.810;8.342;2023-01-01T04:00:32;11.20;99.90
5806;DHT22;2929;50.810;8.342;2023-01-01T04:03:03;11.30;99.90
5806;DHT22;2929;50.810;8.342;2023-01-01T04:05:35;11.20;99.90
5806;DHT22;2929;50.810;8.342;2023-01-01T04:08:03;11.30;99.90
5806;DHT22;2929;50.810;8.342;2023-01-01T04:10:33;11.20;99.90
5806;DHT22;2929;50.810;8.342;2023-01-01T04:13:02;11.20;99.90
5806;DHT22;2929;50.810;8.342;2023-01-01T04:15:32;11.20;99.90
5806;DHT22;2929;50.810;8.342;2023-01-01T04:18:01;11.00;99.90
5806;DHT22;2929;50.810;8.342;2023-01-01T04:20:28;11.00;99.90
5806;DHT22;2929;50.810;8.342;2023-01-01T04:22:56;11.10;99.90
5806;DHT22;2929;50.810;8.342;2023-01-01T04:25:24;11.00;99.90
5806;DHT22;2929;50.810;8.342;2023-01-01T04:27:51;10.90;99.90
5806;DHT22;2929;50.810;8.342;2023-01-01T04:30:18;11.00;99.90
5806;DHT22;2929;50.810;8.342;2023-01-01T04:32:46;11.00;99.90
5806;DHT22;2929;50.810;8.342;2023-01-01T04:35:14;11.10;99.90
5806;DHT22;2929;50.810;8.342;2023-01-01T04:37:43;11.20;99.90
5806;DHT22;2929;50.810;8.342;2023-01-01T04:40:11;11.10;99.90
5806;DHT22;2929;50.810;8.342;2023-01-01T04:42:38;11.30;99.90
5806;DHT22;2929;50.810;8.342;2023-01-01T04:45:06;11.20;99.90
5806;DHT22;2929;50.810;8.342;2023-01-01T04:47:34;11.10;99.90
5806;DHT22;2929;50.810;8.342;2023-01-01T04:50:02;11.00;99.90
5806;DHT22;2929;50.810;8.342;2023-01-01T04:52:29;11.00;99.90
5806;DHT22;2929;50.810;8.342;2023-01-01T04:54:56;10.90;99.90
5806;DHT22;2929;50.810;8.342;2023-01-01T04:57:23;11.00;99.90
5806;DHT22;2929;50.810;8.342;2023-01-01T04:59:54;11.00;99.90
5806;DHT22;2929;50.810;8.342;2023-01-01T05:02:21;11.20;99.90
5806;DHT22;2929;50.810;8.342;2023-01-01T05:04:48;11.20;99.90
5806;DHT22;2929;50.810;8.342;2023-01-01T05:07:16;11.20;99.90
5806;DHT22;2929;50.810;8.342;2023-01-01T05:09:43;11.20;99.90
5806;DHT22;2929;50.810;8.342;2023-01-01T05:12:10;11.20;99.90
5806;DHT22;2929;50.810;8.342;2023-01-01T05:14:37;11.30;99.90
5806;DHT22;2929;50.810;8.342;2023-01-01T05:17:04;11.30;99.90
5806;DHT22;2929;50.810;8.342;2023-01-01T05:19:31;11.30;99.90
5806;DHT22;2929;50.810;8.342;2023-01-01T05:21:59;11.40;99.90
5806;DHT22;2929;50.810;8.342;2023-01-01T05:24:27;11.40;99.90
5806;DHT22;2929;50.810;8.342;2023-01-01T05:26:56;11.40;99.90
5806;DHT22;2929;50.810;8.342;2023-01-01T05:29:22;11.30;99.90
5806;DHT22;2929;50.810;8.342;2023-01-01T05:31:49;11.40;99.90
5806;DHT22;2929;50.810;8.342;2023-01-01T05:34:17;11.40;99.90
5806;DHT22;2929;50.810;8.342;2023-01-01T05:36:44;11.40;99.90
5806;DHT22;2929;50.810;8.342;2023-01-01T05:39:11;11.40;99.90
5806;DHT22;2929;50.810;8.342;2023-01-01T05:41:40;11.50;99.90
5806;DHT22;2929;50.810;8.342;2023-01-01T05:44:07;11.50;99.90
5806;DHT22;2929;50.810;8.342;2023-01-01T05:46:35;11.50;99.90
5806;DHT22;2929;50.810;8.342;2023-01-01T05:49:02;11.40;99.90
5806;DHT22;2929;50.810;8.342;2023-01-01T05:51:29;11.30;99.90
5806;DHT22;2929;50.810;8.342;2023-01-01T05:53:57;11.30;99.90
5806;DHT22;2929;50.810;8.342;2023-01-01T05:56:25;11.40;99.90
5806;DHT22;2929;50.810;8.342;2023-01-01T05:58:54;11.40;99.90
5806;DHT22;2929;50.810;8.342;2023-01-01T06:01:23;11.30;99.90
5806;DHT22;2929;50.810;8.342;2023-01-01T06:03:51;11.30;99.90
5806;DHT22;2929;50.810;8.342;2023-01-01T06:06:20;11.20;99.90
5806;DHT22;2929;50.810;8.342;2023-01-01T06:08:51;11.20;99.90
5806;DHT22;2929;50.810;8.342;2023-01-01T06:11:18;11.20;99.90
5806;DHT22;2929;50.810;8.342;2023-01-01T06:13:45;11.30;99.90
5806;DHT22;2929;50.810;8.342;2023-01-01T06:16:14;11.30;99.90
5806;DHT22;2929;50.810;8.342;2023-01-01T06:18:41;11.40;99.90
5806;DHT22;2929;50.810;8.342;2023-01-01T06:21:09;11.40;99.90
5806;DHT22;2929;50.810;8.342;2023-01-01T06:23:37;11.40;99.90
5806;DHT22;2929;50.810;8.342;2023-01-01T06:26:06;11.50;99.90
5806;DHT22;2929;50.810;8.342;2023-01-01T06:28:33;11.40;99.90
5806;DHT22;2929;50.810;8.342;2023-01-01T06:31:00;11.40;99.90
5806;DHT22;2929;50.810;8.342;2023-01-01T06:33:29;11.40;99.90
5806;DHT22;2929;50.810;8.342;2023-01-01T06:35:56;11.40;99.90
5806;DHT22;2929;50.810;8.342;2023-01-01T06:38:23;11.40;99.90
5806;DHT22;2929;50.810;8.342;2023-01-01T06:40:57;11.40;99.90
5806;DHT22;2929;50.810;8.342;2023-01-01T06:43:24;11.50;99.90
5806;DHT22;2929;50.810;8.342;2023-01-01T06:45:59;11.50;99.90
5806;DHT22;2929;50.810;8.342;2023-01-01T06:48:29;11.40;99.90
5806;DHT22;2929;50.810;8.342;2023-01-01T06:50:56;11.40;99.90
5806;DHT22;2929;50.810;8.342;2023-01-01T06:53:23;11.40;99.90
5806;DHT22;2929;50.810;8.342;2023-01-01T06:55:51;11.30;99.90
5806;DHT22;2929;50.810;8.342;2023-01-01T06:58:18;11.20;99.90
5806;DHT22;2929;50.810;8.342;2023-01-01T07:00:45;11.20;99.90
5806;DHT22;2929;50.810;8.342;2023-01-01T07:03:12;11.10;99.90
5806;DHT22;2929;50.810;8.342;2023-01-01T07:05:40;11.10;99.90
5806;DHT22;2929;50.810;8.342;2023-01-01T07:08:07;11.00;99.90
5806;DHT22;2929;50.810;8.342;2023-01-01T07:10:34;11.10;99.90
5806;DHT22;2929;50.810;8.342;2023-01-01T07:13:01;11.10;99.90
5806;DHT22;2929;50.810;8.342;2023-01-01T07:15:28;11.00;99.90
5806;DHT22;2929;50.810;8.342;2023-01-01T07:17:56;11.00;99.90
5806;DHT22;2929;50.810;8.342;2023-01-01T07:20:23;11.10;99.90
5806;DHT22;2929;50.810;8.342;2023-01-01T07:22:51;11.10;99.90
5806;DHT22;2929;50.810;8.342;2023-01-01T07:25:18;11.10;99.90
5806;DHT22;2929;50.810;8.342;2023-01-01T07:27:45;11.10;99.90
5806;DHT22;2929;50.810;8.342;2023-01-01T07:30:12;11.20;99.90
5806;DHT22;2929;50.810;8.342;2023-01-01T07:32:39;11.20;99.90
5806;DHT22;2929;50.810;8.342;2023-01-01T07:35:07;11.30;99.90
5806;DHT22;2929;50.810;8.342;2023-01-01T07:37:34;11.20;99.90
5806;DHT22;2929;50.810;8.342;2023-01-01T07:40:03;11.20;99.90
5806;DHT22;2929;50.810;8.342;2023-01-01T07:42:31;11.20;99.90
5806;DHT22;2929;50.810;8.342;2023-01-01T07:44:59;11.10;99.90
5806;DHT22;2929;50.810;8.342;2023-01-01T07:47:26;11.00;99.90
5806;DHT22;2929;50.810;8.342;2023-01-01T07:49:53;11.10;99.90
5806;DHT22;2929;50.810;8.342;2023-01-01T07:52:20;11.20;99.90
5806;DHT22;2929;50.810;8.342;2023-01-01T07:54:47;11.30;99.90
5806;DHT22;2929;50.810;8.342;2023-01-01T07:57:15;11.30;99.90
5806;DHT22;2929;50.810;8.342;2023-01-01T07:59:42;11.40;99.90
5806;DHT22;2929;50.810;8.342;2023-01-01T08:02:10;11.60;99.90
5806;DHT22;2929;50.810;8.342;2023-01-01T08:04:38;11.70;99.90
5806;DHT22;2929;50.810;8.342;2023-01-01T08:07:05;11.70;99.90
5806;DHT22;2929;50.810;8.342;2023-01-01T08:09:32;11.60;99.90
5806;DHT22;2929;50.810;8.342;2023-01-01T08:11:59;11.70;99.90
5806;DHT22;2929;50.810;8.342;2023-01-01T08:14:27;11.70;99.90
5806;DHT22;2929;50.810;8.342;2023-01-01T08:16:54;11.60;99.90
5806;DHT22;2929;50.810;8.342;2023-01-01T08:19:21;11.60;99.90
5806;DHT22;2929;50.810;8.342;2023-01-01T08:21:48;11.50;99.90
5806;DHT22;2929;50.810;8.342;2023-01-01T08:24:15;11.50;99.90
5806;DHT22;2929;50.810;8.342;2023-01-01T08:26:42;11.60;99.90
5806;DHT22;2929;50.810;8.342;2023-01-01T08:29:10;11.50;99.90
5806;DHT22;2929;50.810;8.342;2023-01-01T08:31:38;11.50;99.90
5806;DHT22;2929;50.810;8.342;2023-01-01T08:34:05;11.50;99.90
5806;DHT22;2929;50.810;8.342;2023-01-01T08:36:33;11.50;99.90
5806;DHT22;2929;50.810;8.342;2023-01-01T08:39:00;11.50;99.90
5806;DHT22;2929;50.810;8.342;2023-01-01T08:41:27;11.50;99.90
5806;DHT22;2929;50.810;8.342;2023-01-01T08:43:54;11.50;99.90
5806;DHT22;2929;50.810;8.342;2023-01-01T08:46:21;11.60;99.90
5806;DHT22;2929;50.810;8.342;2023-01-01T08:48:49;11.70;99.90
5806;DHT22;2929;50.810;8.342;2023-01-01T08:51:17;11.90;99.90
5806;DHT22;2929;50.810;8.342;2023-01-01T08:53:44;12.10;99.90
5806;DHT22;2929;50.810;8.342;2023-01-01T08:56:11;12.20;99.90
5806;DHT22;2929;50.810;8.342;2023-01-01T08:58:41;12.30;99.90
5806;DHT22;2929;50.810;8.342;2023-01-01T09:01:09;12.20;99.90
5806;DHT22;2929;50.810;8.342;2023-01-01T09:03:36;12.30;99.90
5806;DHT22;2929;50.810;8.342;2023-01-01T09:06:05;12.30;99.90
5806;DHT22;2929;50.810;8.342;2023-01-01T09:08:32;12.20;99.90
5806;DHT22;2929;50.810;8.342;2023-01-01T09:11:01;12.20;99.90
5806;DHT22;2929;50.810;8.342;2023-01-01T09:13:29;12.20;99.90
5806;DHT22;2929;50.810;8.342;2023-01-01T09:15:56;12.20;99.90
5806;DHT22;2929;50.810;8.342;2023-01-01T09:18:23;12.20;99.90
5806;DHT22;2929;50.810;8.342;2023-01-01T09:20:50;12.20;99.90
5806;DHT22;2929;50.810;8.342;2023-01-01T09:23:18;12.10;99.90
5806;DHT22;2929;50.810;8.342;2023-01-01T09:25:46;12.10;99.90
5806;DHT22;2929;50.810;8.342;2023-01-01T09:28:13;12.10;99.90
5806;DHT22;2929;50.810;8.342;2023-01-01T09:30:40;12.20;99.90
5806;DHT22;2929;50.810;8.342;2023-01-01T09:33:07;12.20;99.90
5806;DHT22;2929;50.810;8.342;2023-01-01T09:35:34;12.20;99.90
5806;DHT22;2929;50.810;8.342;2023-01-01T09:38:03;12.20;99.90
5806;DHT22;2929;50.810;8.342;2023-01-01T09:40:38;12.20;99.90
5806;DHT22;2929;50.810;8.342;2023-01-01T09:43:17;12.10;99.90
5806;DHT22;2929;50.810;8.342;2023-01-01T09:45:55;12.20;99.90
5806;DHT22;2929;50.810;8.342;2023-01-01T09:48:25;12.20;99.90
5806;DHT22;2929;50.810;8.342;2023-01-01T09:50:57;12.10;99.90
5806;DHT22;2929;50.810;8.342;2023-01-01T09:53:30;12.10;99.90
5806;DHT22;2929;50.810;8.342;2023-01-01T09:56:00;12.10;99.90
5806;DHT22;2929;50.810;8.342;2023-01-01T09:58:32;12.10;99.90
5806;DHT22;2929;50.810;8.342;2023-01-01T10:01:03;12.10;99.90
5806;DHT22;2929;50.810;8.342;2023-01-01T10:03:38;12.10;99.90
5806;DHT22;2929;50.810;8.342;2023-01-01T10:06:14;12.10;99.90
5806;DHT22;2929;50.810;8.342;2023-01-01T10:09:04;12.10;99.90
5806;DHT22;2929;50.810;8.342;2023-01-01T10:11:42;12.10;99.90
5806;DHT22;2929;50.810;8.342;2023-01-01T10:14:16;12.10;99.90
5806;DHT22;2929;50.810;8.342;2023-01-01T10:16:47;12.10;99.90
5806;DHT22;2929;50.810;8.342;2023-01-01T10:19:23;12.00;99.90
5806;DHT22;2929;50.810;8.342;2023-01-01T10:21:56;12.00;99.90
5806;DHT22;2929;50.810;8.342;2023-01-01T10:24:34;12.00;99.90
5806;DHT22;2929;50.810;8.342;2023-01-01T10:27:05;12.00;99.90
5806;DHT22;2929;50.810;8.342;2023-01-01T10:29:37;12.00;99.90
5806;DHT22;2929;50.810;8.342;2023-01-01T10:32:17;12.00;99.90
5806;DHT22;2929;50.810;8.342;2023-01-01T10:34:44;12.00;99.90
5806;DHT22;2929;50.810;8.342;2023-01-01T10:37:12;12.00;99.90
5806;DHT22;2929;50.810;8.342;2023-01-01T10:39:42;11.90;99.90
5806;DHT22;2929;50.810;8.342;2023-01-01T10:42:11;12.00;99.90
5806;DHT22;2929;50.810;8.342;2023-01-01T10:44:39;11.80;99.90
5806;DHT22;2929;50.810;8.342;2023-01-01T10:47:21;11.80;99.90
5806;DHT22;2929;50.810;8.342;2023-01-01T10:49:56;11.90;99.90
5806;DHT22;2929;50.810;8.342;2023-01-01T10:52:28;11.90;99.90
5806;DHT22;2929;50.810;8.342;2023-01-01T10:54:57;11.80;99.90
5806;DHT22;2929;50.810;8.342;2023-01-01T10:57:34;11.80;99.90
5806;DHT22;2929;50.810;8.342;2023-01-01T11:00:19;11.90;99.90
5806;DHT22;2929;50.810;8.342;2023-01-01T11:02:47;11.90;99.90
5806;DHT22;2929;50.810;8.342;2023-01-01T11:05:29;11.90;99.90
5806;DHT22;2929;50.810;8.342;2023-01-01T11:07:56;11.90;99.90
5806;DHT22;2929;50.810;8.342;2023-01-01T11:10:23;12.00;99.90
5806;DHT22;2929;50.810;8.342;2023-01-01T11:12:52;12.00;99.90
5806;DHT22;2929;50.810;8.342;2023-01-01T11:15:22;11.90;99.90
5806;DHT22;2929;50.810;8.342;2023-01-01T11:17:50;11.90;99.90
5806;DHT22;2929;50.810;8.342;2023-01-01T11:20:18;11.90;99.90
5806;DHT22;2929;50.810;8.342;2023-01-01T11:22:47;11.80;99.90
5806;DHT22;2929;50.810;8.342;2023-01-01T11:25:20;11.80;99.90
5806;DHT22;2929;50.810;8.342;2023-01-01T11:27:48;11.80;99.90
5806;DHT22;2929;50.810;8.342;2023-01-01T11:30:25;11.90;99.90
5806;DHT22;2929;50.810;8.342;2023-01-01T11:32:55;12.00;99.90
5806;DHT22;2929;50.810;8.342;2023-01-01T11:35:25;11.90;99.90
5806;DHT22;2929;50.810;8.342;2023-01-01T11:37:54;12.00;99.90
5806;DHT22;2929;50.810;8.342;2023-01-01T11:40:23;11.90;99.90
5806;DHT22;2929;50.810;8.342;2023-01-01T11:42:53;12.00;99.90
5806;DHT22;2929;50.810;8.342;2023-01-01T11:45:25;11.90;99.90
5806;DHT22;2929;50.810;8.342;2023-01-01T11:47:56;11.90;99.90
5806;DHT22;2929;50.810;8.342;2023-01-01T11:50:28;11.90;99.90
5806;DHT22;2929;50.810;8.342;2023-01-01T11:52:56;12.00;99.90
5806;DHT22;2929;50.810;8.342;2023-01-01T11:55:36;12.00;99.90
5806;DHT22;2929;50.810;8.342;2023-01-01T11:58:10;12.00;99.90
5806;DHT22;2929;50.810;8.342;2023-01-01T12:00:41;12.00;99.90
5806;DHT22;2929;50.810;8.342;2023-01-01T12:03:17;12.00;99.90
5806;DHT22;2929;50.810;8.342;2023-01-01T12:05:50;11.90;99.90
5806;DHT22;2929;50.810;8.342;2023-01-01T12:08:36;11.90;99.90
5806;DHT22;2929;50.810;8.342;2023-01-01T12:11:09;11.90;99.90
5806;DHT22;2929;50.810;8.342;2023-01-01T12:13:44;11.90;99.90
5806;DHT22;2929;50.810;8.342;2023-01-01T12:16:20;11.90;99.90
5806;DHT22;2929;50.810;8.342;2023-01-01T12:18:56;11.90;99.90
5806;DHT22;2929;50.810;8.342;2023-01-01T12:21:26;11.90;99.90
5806;DHT22;2929;50.810;8.342;2023-01-01T12:23:54;11.90;99.90
5806;DHT22;2929;50.810;8.342;2023-01-01T12:26:23;11.90;99.90
5806;DHT22;2929;50.810;8.342;2023-01-01T12:29:14;11.90;99.90
5806;DHT22;2929;50.810;8.342;2023-01-01T12:31:54;12.00;99.90
5806;DHT22;2929;50.810;8.342;2023-01-01T12:34:26;11.90;99.90
5806;DHT22;2929;50.810;8.342;2023-01-01T12:36:59;11.90;99.90
5806;DHT22;2929;50.810;8.342;2023-01-01T12:42:45;11.90;99.90
5806;DHT22;2929;50.810;8.342;2023-01-01T12:45:31;11.80;99.90
5806;DHT22;2929;50.810;8.342;2023-01-01T12:48:20;11.80;99.90
5806;DHT22;2929;50.810;8.342;2023-01-01T12:50:59;11.80;99.90
5806;DHT22;2929;50.810;8.342;2023-01-01T12:53:33;11.70;99.90
5806;DHT22;2929;50.810;8.342;2023-01-01T12:56:13;11.80;99.90
5806;DHT22;2929;50.810;8.342;2023-01-01T12:58:43;11.80;99.90
5806;DHT22;2929;50.810;8.342;2023-01-01T13:01:19;11.80;99.90
5806;DHT22;2929;50.810;8.342;2023-01-01T13:03:50;11.80;99.90
5806;DHT22;2929;50.810;8.342;2023-01-01T13:06:21;11.80;99.90
5806;DHT22;2929;50.810;8.342;2023-01-01T13:08:54;11.80;99.90
5806;DHT22;2929;50.810;8.342;2023-01-01T13:11:22;11.80;99.90
5806;DHT22;2929;50.810;8.342;2023-01-01T13:13:52;11.70;99.90
5806;DHT22;2929;50.810;8.342;2023-01-01T13:16:32;11.70;99.90
5806;DHT22;2929;50.810;8.342;2023-01-01T13:19:02;11.70;99.90
5806;DHT22;2929;50.810;8.342;2023-01-01T13:21:29;11.70;99.90
5806;DHT22;2929;50.810;8.342;2023-01-01T13:24:01;11.70;99.90
5806;DHT22;2929;50.810;8.342;2023-01-01T13:26:35;11.70;99.90
5806;DHT22;2929;50.810;8.342;2023-01-01T13:29:31;11.80;99.90
5806;DHT22;2929;50.810;8.342;2023-01-01T13:32:04;11.80;99.90
5806;DHT22;2929;50.810;8.342;2023-01-01T13:37:44;11.80;99.90
5806;DHT22;2929;50.810;8.342;2023-01-01T13:43:27;11.70;99.90
5806;DHT22;2929;50.810;8.342;2023-01-01T13:45:57;11.80;99.90
5806;DHT22;2929;50.810;8.342;2023-01-01T13:48:50;11.70;99.90
5806;DHT22;2929;50.810;8.342;2023-01-01T13:51:34;11.70;99.90
5806;DHT22;2929;50.810;8.342;2023-01-01T13:54:19;11.70;99.90
5806;DHT22;2929;50.810;8.342;2023-01-01T13:56:56;11.60;99.90
5806;DHT22;2929;50.810;8.342;2023-01-01T13:59:50;11.70;99.90
5806;DHT22;2929;50.810;8.342;2023-01-01T14:02:23;11.70;99.90
5806;DHT22;2929;50.810;8.342;2023-01-01T14:04:55;11.70;99.90
5806;DHT22;2929;50.810;8.342;2023-01-01T14:07:31;11.70;99.90
5806;DHT22;2929;50.810;8.342;2023-01-01T14:10:23;11.80;99.90
5806;DHT22;2929;50.810;8.342;2023-01-01T14:12:52;11.70;99.90
5806;DHT22;2929;50.810;8.342;2023-01-01T14:15:27;11.70;99.90
5806;DHT22;2929;50.810;8.342;2023-01-01T14:17:57;11.70;99.90
5806;DHT22;2929;50.810;8.342;2023-01-01T14:20:31;11.60;99.90
5806;DHT22;2929;50.810;8.342;2023-01-01T14:23:05;11.60;99.90
5806;DHT22;2929;50.810;8.342;2023-01-01T14:25:34;11.60;99.90
5806;DHT22;2929;50.810;8.342;2023-01-01T14:28:01;11.60;99.90
5806;DHT22;2929;50.810;8.342;2023-01-01T14:30:30;11.50;99.90
5806;DHT22;2929;50.810;8.342;2023-01-01T14:32:59;11.40;99.90
5806;DHT22;2929;50.810;8.342;2023-01-01T14:35:27;11.40;99.90
5806;DHT22;2929;50.810;8.342;2023-01-01T14:37:55;11.50;99.90
5806;DHT22;2929;50.810;8.342;2023-01-01T14:40:25;11.50;99.90
5806;DHT22;2929;50.810;8.342;2023-01-01T14:42:59;11.60;99.90
5806;DHT22;2929;50.810;8.342;2023-01-01T14:45:29;11.50;99.90
5806;DHT22;2929;50.810;8.342;2023-01-01T14:47:57;11.40;99.90
5806;DHT22;2929;50.810;8.342;2023-01-01T14:50:28;11.30;99.90
5806;DHT22;2929;50.810;8.342;2023-01-01T14:53:04;11.30;99.90
5806;DHT22;2929;50.810;8.342;2023-01-01T14:55:38;11.30;99.90
5806;DHT22;2929;50.810;8.342;2023-01-01T14:58:11;11.30;99.90
5806;DHT22;2929;50.810;8.342;2023-01-01T15:00:39;11.20;99.90
5806;DHT22;2929;50.810;8.342;2023-01-01T15:03:12;11.20;99.90
5806;DHT22;2929;50.810;8.342;2023-01-01T15:05:41;11.10;99.90
5806;DHT22;2929;50.810;8.342;2023-01-01T15:08:20;11.20;99.90
5806;DHT22;2929;50.810;8.342;2023-01-01T15:10:49;11.10;99.90
5806;DHT22;2929;50.810;8.342;2023-01-01T15:13:19;11.10;99.90
5806;DHT22;2929;50.810;8.342;2023-01-01T15:15:47;11.10;99.90
5806;DHT22;2929;50.810;8.342;2023-01-01T15:18:38;11.20;99.90
5806;DHT22;2929;50.810;8.342;2023-01-01T15:21:11;11.30;99.90
5806;DHT22;2929;50.810;8.342;2023-01-01T15:23:47;11.30;99.90
5806;DHT22;2929;50.810;8.342;2023-01-01T15:26:25;11.30;99.90
5806;DHT22;2929;50.810;8.342;2023-01-01T15:28:55;11.30;99.90
5806;DHT22;2929;50.810;8.342;2023-01-01T15:31:33;11.20;99.90
5806;DHT22;2929;50.810;8.342;2023-01-01T15:34:01;11.30;99.90
5806;DHT22;2929;50.810;8.342;2023-01-01T15:36:28;11.20;99.90
5806;DHT22;2929;50.810;8.342;2023-01-01T15:38:55;11.40;99.90
5806;DHT22;2929;50.810;8.342;2023-01-01T15:41:32;11.30;99.90
5806;DHT22;2929;50.810;8.342;2023-01-01T15:44:12;11.30;99.90
5806;DHT22;2929;50.810;8.342;2023-01-01T15:46:44;11.30;99.90
5806;DHT22;2929;50.810;8.342;2023-01-01T15:49:25;11.10;99.90
5806;DHT22;2929;50.810;8.342;2023-01-01T15:51:55;11.20;99.90
5806;DHT22;2929;50.810;8.342;2023-01-01T15:54:24;11.30;99.90
5806;DHT22;2929;50.810;8.342;2023-01-01T15:56:53;11.30;99.90
5806;DHT22;2929;50.810;8.342;2023-01-01T15:59:26;11.30;99.90
5806;DHT22;2929;50.810;8.342;2023-01-01T16:02:10;11.20;99.90
5806;DHT22;2929;50.810;8.342;2023-01-01T16:04:38;11.30;99.90
5806;DHT22;2929;50.810;8.342;2023-01-01T16:07:14;11.30;99.90
5806;DHT22;2929;50.810;8.342;2023-01-01T16:09:41;11.30;99.90
5806;DHT22;2929;50.810;8.342;2023-01-01T16:12:10;11.20;99.90
5806;DHT22;2929;50.810;8.342;2023-01-01T16:14:37;11.10;99.90
5806;DHT22;2929;50.810;8.342;2023-01-01T16:17:04;11.10;99.90
5806;DHT22;2929;50.810;8.342;2023-01-01T16:19:32;11.10;99.90
5806;DHT22;2929;50.810;8.342;2023-01-01T16:21:59;11.00;99.90
5806;DHT22;2929;50.810;8.342;2023-01-01T16:24:26;11.00;99.90
5806;DHT22;2929;50.810;8.342;2023-01-01T16:26:53;11.00;99.90
5806;DHT22;2929;50.810;8.342;2023-01-01T16:29:22;11.00;99.90
5806;DHT22;2929;50.810;8.342;2023-01-01T16:31:50;10.90;99.90
5806;DHT22;2929;50.810;8.342;2023-01-01T16:34:17;10.90;99.90
5806;DHT22;2929;50.810;8.342;2023-01-01T16:36:44;10.80;99.90